sensor_id;sensor_type;location;lat;lon;timestamp;P1;durP1;ratioP1;P2;durP2;ratioP2
77822;SDS011;67013;49.730;17.292;2023-04-01T00:01:36;43.50;;;15.90;;
77822;SDS011;67013;49.730;17.292;2023-04-01T00:04:05;37.80;;;14.00;;
77822;SDS011;67013;49.730;17.292;2023-04-01T00:06:34;34.40;;;12.40;;
77822;SDS011;67013;49.730;17.292;2023-04-01T00:09:04;29.00;;;10.60;;
77822;SDS011;67013;49.730;17.292;2023-04-01T00:11:33;29.80;;;10.40;;
77822;SDS011;67013;49.730;17.292;2023-04-01T00:14:03;28.40;;;10.10;;
77822;SDS011;67013;49.730;17.292;2023-04-01T00:16:33;31.80;;;11.10;;
77822;SDS011;67013;49.730;17.292;2023-04-01T00:19:02;23.30;;;10.90;;
77822;SDS011;67013;49.730;17.292;2023-04-01T00:21:32;31.40;;;10.50;;
77822;SDS011;67013;49.730;17.292;2023-04-01T00:24:02;23.20;;;10.40;;
77822;SDS011;67013;49.730;17.292;2023-04-01T00:26:32;20.60;;;9.10;;
77822;SDS011;67013;49.730;17.292;2023-04-01T00:29:01;27.60;;;9.60;;
77822;SDS011;67013;49.730;17.292;2023-04-01T00:31:31;25.80;;;9.30;;
77822;SDS011;67013;49.730;17.292;2023-04-01T00:34:01;27.10;;;10.40;;
77822;SDS011;67013;49.730;17.292;2023-04-01T00:36:31;17.50;;;9.10;;
77822;SDS011;67013;49.730;17.292;2023-04-01T00:39:00;25.60;;;9.90;;
77822;SDS011;67013;49.730;17.292;2023-04-01T00:41:30;24.40;;;10.30;;
77822;SDS011;67013;49.730;17.292;2023-04-01T00:44:18;27.50;;;9.30;;
77822;SDS011;67013;49.730;17.292;2023-04-01T00:46:49;20.30;;;7.10;;
77822;SDS011;67013;49.730;17.292;2023-04-01T00:49:20;21.20;;;7.60;;
77822;SDS011;67013;49.730;17.292;2023-04-01T00:51:53;19.30;;;7.80;;
77822;SDS011;67013;49.730;17.292;2023-04-01T00:54:25;21.40;;;9.80;;
77822;SDS011;67013;49.730;17.292;2023-04-01T00:56:58;24.20;;;9.30;;
77822;SDS011;67013;49.730;17.292;2023-04-01T00:59:32;17.80;;;7.20;;
77822;SDS011;67013;49.730;17.292;2023-04-01T01:02:07;23.00;;;8.40;;
77822;SDS011;67013;49.730;17.292;2023-04-01T01:04:38;19.60;;;6.20;;
77822;SDS011;67013;49.730;17.292;2023-04-01T01:07:14;22.00;;;6.90;;
77822;SDS011;67013;49.730;17.292;2023-04-01T01:09:54;17.00;;;5.30;;
77822;SDS011;67013;49.730;17.292;2023-04-01T01:12:31;16.50;;;5.20;;
77822;SDS011;67013;49.730;17.292;2023-04-01T01:15:10;19.10;;;7.50;;
77822;SDS011;67013;49.730;17.292;2023-04-01T01:17:50;22.10;;;9.60;;
77822;SDS011;67013;49.730;17.292;2023-04-01T01:24:09;68.20;;;25.50;;
77822;SDS011;67013;49.730;17.292;2023-04-01T01:26:54;58.90;;;23.40;;
77822;SDS011;67013;49.730;17.292;2023-04-01T01:29:34;91.20;;;32.40;;
77822;SDS011;67013;49.730;17.292;2023-04-01T01:32:18;82.00;;;29.10;;
77822;SDS011;67013;49.730;17.292;2023-04-01T01:35:05;68.30;;;26.90;;
77822;SDS011;67013;49.730;17.292;2023-04-01T01:37:44;63.10;;;24.40;;
77822;SDS011;67013;49.730;17.292;2023-04-01T01:40:17;55.50;;;21.60;;
77822;SDS011;67013;49.730;17.292;2023-04-01T01:42:48;41.40;;;17.60;;
77822;SDS011;67013;49.730;17.292;2023-04-01T01:45:21;43.40;;;16.80;;
77822;SDS011;67013;49.730;17.292;2023-04-01T01:47:53;60.40;;;22.30;;
77822;SDS011;67013;49.730;17.292;2023-04-01T01:50:25;34.00;;;12.40;;
77822;SDS011;67013;49.730;17.292;2023-04-01T01:53:05;48.90;;;18.60;;
77822;SDS011;67013;49.730;17.292;2023-04-01T01:55:37;36.80;;;14.40;;
77822;SDS011;67013;49.730;17.292;2023-04-01T01:58:09;30.00;;;12.50;;
77822;SDS011;67013;49.730;17.292;2023-04-01T02:00:44;34.70;;;12.90;;
77822;SDS011;67013;49.730;17.292;2023-04-01T02:03:17;31.10;;;11.90;;
77822;SDS011;67013;49.730;17.292;2023-04-01T02:05:51;25.30;;;9.30;;
77822;SDS011;67013;49.730;17.292;2023-04-01T02:08:24;32.20;;;9.50;;
77822;SDS011;67013;49.730;17.292;2023-04-01T02:11:00;30.70;;;8.50;;
77822;SDS011;67013;49.730;17.292;2023-04-01T02:13:33;29.70;;;11.20;;
77822;SDS011;67013;49.730;17.292;2023-04-01T02:16:10;27.80;;;11.20;;
77822;SDS011;67013;49.730;17.292;2023-04-01T02:18:47;17.30;;;6.70;;
77822;SDS011;67013;49.730;17.292;2023-04-01T02:21:20;17.70;;;7.20;;
77822;SDS011;67013;49.730;17.292;2023-04-01T02:23:52;16.40;;;5.90;;
77822;SDS011;67013;49.730;17.292;2023-04-01T02:26:24;16.10;;;5.50;;
77822;SDS011;67013;49.730;17.292;2023-04-01T02:28:54;18.60;;;6.40;;
77822;SDS011;67013;49.730;17.292;2023-04-01T02:31:27;19.20;;;5.90;;
77822;SDS011;67013;49.730;17.292;2023-04-01T02:33:57;13.80;;;5.60;;
77822;SDS011;67013;49.730;17.292;2023-04-01T02:36:28;12.00;;;4.40;;
77822;SDS011;67013;49.730;17.292;2023-04-01T02:38:57;20.10;;;5.40;;
77822;SDS011;67013;49.730;17.292;2023-04-01T02:41:29;14.20;;;4.80;;
77822;SDS011;67013;49.730;17.292;2023-04-01T02:43:59;14.00;;;5.10;;
77822;SDS011;67013;49.730;17.292;2023-04-01T02:46:29;13.70;;;5.10;;
77822;SDS011;67013;49.730;17.292;2023-04-01T02:48:59;13.00;;;3.90;;
77822;SDS011;67013;49.730;17.292;2023-04-01T02:51:28;15.50;;;6.00;;
77822;SDS011;67013;49.730;17.292;2023-04-01T02:53:58;12.10;;;5.30;;
77822;SDS011;67013;49.730;17.292;2023-04-01T02:56:27;14.30;;;4.90;;
77822;SDS011;67013;49.730;17.292;2023-04-01T02:58:57;12.50;;;5.80;;
77822;SDS011;67013;49.730;17.292;2023-04-01T03:01:26;11.80;;;4.40;;
77822;SDS011;67013;49.730;17.292;2023-04-01T03:03:56;15.90;;;5.20;;
77822;SDS011;67013;49.730;17.292;2023-04-01T03:06:26;10.00;;;4.20;;
77822;SDS011;67013;49.730;17.292;2023-04-01T03:08:55;12.00;;;5.20;;
77822;SDS011;67013;49.730;17.292;2023-04-01T03:11:25;17.30;;;5.80;;
77822;SDS011;67013;49.730;17.292;2023-04-01T03:13:54;14.90;;;5.70;;
77822;SDS011;67013;49.730;17.292;2023-04-01T03:16:24;11.50;;;4.30;;
77822;SDS011;67013;49.730;17.292;2023-04-01T03:18:53;19.80;;;6.80;;
77822;SDS011;67013;49.730;17.292;2023-04-01T03:21:25;32.00;;;9.00;;
77822;SDS011;67013;49.730;17.292;2023-04-01T03:23:55;58.80;;;18.50;;
77822;SDS011;67013;49.730;17.292;2023-04-01T03:26:25;70.10;;;17.50;;
77822;SDS011;67013;49.730;17.292;2023-04-01T03:28:54;38.40;;;11.10;;
77822;SDS011;67013;49.730;17.292;2023-04-01T03:31:24;29.80;;;9.50;;
77822;SDS011;67013;49.730;17.292;2023-04-01T03:33:53;11.70;;;4.30;;
77822;SDS011;67013;49.730;17.292;2023-04-01T03:36:23;17.70;;;6.60;;
77822;SDS011;67013;49.730;17.292;2023-04-01T03:38:52;20.90;;;7.50;;
77822;SDS011;67013;49.730;17.292;2023-04-01T03:41:22;24.90;;;9.60;;
77822;SDS011;67013;49.730;17.292;2023-04-01T03:43:52;27.10;;;11.30;;
77822;SDS011;67013;49.730;17.292;2023-04-01T03:46:22;18.30;;;6.40;;
77822;SDS011;67013;49.730;17.292;2023-04-01T03:48:51;18.70;;;7.30;;
77822;SDS011;67013;49.730;17.292;2023-04-01T03:51:21;24.60;;;10.00;;
77822;SDS011;67013;49.730;17.292;2023-04-01T03:53:50;19.70;;;8.00;;
77822;SDS011;67013;49.730;17.292;2023-04-01T03:56:20;48.30;;;17.80;;
77822;SDS011;67013;49.730;17.292;2023-04-01T03:58:49;45.20;;;18.30;;
77822;SDS011;67013;49.730;17.292;2023-04-01T04:01:20;14.50;;;6.30;;
77822;SDS011;67013;49.730;17.292;2023-04-01T04:03:50;18.00;;;9.70;;
77822;SDS011;67013;49.730;17.292;2023-04-01T04:06:20;21.50;;;9.80;;
77822;SDS011;67013;49.730;17.292;2023-04-01T04:08:50;13.10;;;6.30;;
77822;SDS011;67013;49.730;17.292;2023-04-01T04:11:19;14.50;;;7.90;;
77822;SDS011;67013;49.730;17.292;2023-04-01T04:13:50;18.20;;;9.20;;
77822;SDS011;67013;49.730;17.292;2023-04-01T04:16:19;16.90;;;7.80;;
77822;SDS011;67013;49.730;17.292;2023-04-01T04:18:48;20.00;;;8.70;;
77822;SDS011;67013;49.730;17.292;2023-04-01T04:21:18;12.70;;;6.10;;
77822;SDS011;67013;49.730;17.292;2023-04-01T04:23:48;25.30;;;9.80;;
77822;SDS011;67013;49.730;17.292;2023-04-01T04:26:18;17.80;;;7.30;;
77822;SDS011;67013;49.730;17.292;2023-04-01T04:28:48;16.60;;;7.10;;
77822;SDS011;67013;49.730;17.292;2023-04-01T04:31:19;15.80;;;7.80;;
77822;SDS011;67013;49.730;17.292;2023-04-01T04:33:50;20.20;;;8.90;;
77822;SDS011;67013;49.730;17.292;2023-04-01T04:36:20;13.00;;;6.30;;
77822;SDS011;67013;49.730;17.292;2023-04-01T04:38:49;33.60;;;10.90;;
77822;SDS011;67013;49.730;17.292;2023-04-01T04:41:19;39.70;;;13.50;;
77822;SDS011;67013;49.730;17.292;2023-04-01T04:43:50;16.50;;;7.20;;
77822;SDS011;67013;49.730;17.292;2023-04-01T04:46:21;34.90;;;17.40;;
77822;SDS011;67013;49.730;17.292;2023-04-01T04:48:50;30.70;;;14.50;;
77822;SDS011;67013;49.730;17.292;2023-04-01T04:51:20;32.10;;;20.00;;
77822;SDS011;67013;49.730;17.292;2023-04-01T04:53:50;29.80;;;15.90;;
77822;SDS011;67013;49.730;17.292;2023-04-01T04:56:20;20.20;;;9.80;;
77822;SDS011;67013;49.730;17.292;2023-04-01T04:58:51;18.40;;;10.50;;
77822;SDS011;67013;49.730;17.292;2023-04-01T05:01:22;14.90;;;6.50;;
77822;SDS011;67013;49.730;17.292;2023-04-01T05:03:51;12.00;;;4.80;;
77822;SDS011;67013;49.730;17.292;2023-04-01T05:06:21;13.30;;;6.80;;
77822;SDS011;67013;49.730;17.292;2023-04-01T05:08:52;13.10;;;7.80;;
77822;SDS011;67013;49.730;17.292;2023-04-01T05:11:21;14.20;;;6.70;;
77822;SDS011;67013;49.730;17.292;2023-04-01T05:13:52;18.00;;;8.70;;
77822;SDS011;67013;49.730;17.292;2023-04-01T05:16:21;13.00;;;6.60;;
77822;SDS011;67013;49.730;17.292;2023-04-01T05:18:51;16.90;;;9.80;;
77822;SDS011;67013;49.730;17.292;2023-04-01T05:21:21;12.90;;;6.90;;
77822;SDS011;67013;49.730;17.292;2023-04-01T05:23:50;17.40;;;8.70;;
77822;SDS011;67013;49.730;17.292;2023-04-01T05:26:20;14.30;;;7.60;;
77822;SDS011;67013;49.730;17.292;2023-04-01T05:28:49;13.20;;;6.90;;
77822;SDS011;67013;49.730;17.292;2023-04-01T05:31:18;10.30;;;5.70;;
77822;SDS011;67013;49.730;17.292;2023-04-01T05:33:50;12.10;;;5.80;;
77822;SDS011;67013;49.730;17.292;2023-04-01T05:36:20;10.20;;;5.00;;
77822;SDS011;67013;49.730;17.292;2023-04-01T05:38:50;14.50;;;5.80;;
77822;SDS011;67013;49.730;17.292;2023-04-01T05:43:49;13.30;;;5.20;;
77822;SDS011;67013;49.730;17.292;2023-04-01T05:46:19;9.90;;;5.30;;
77822;SDS011;67013;49.730;17.292;2023-04-01T05:48:48;11.60;;;4.90;;
77822;SDS011;67013;49.730;17.292;2023-04-01T05:51:18;12.40;;;5.90;;
77822;SDS011;67013;49.730;17.292;2023-04-01T05:53:48;10.60;;;5.00;;
77822;SDS011;67013;49.730;17.292;2023-04-01T05:56:17;14.20;;;7.10;;
77822;SDS011;67013;49.730;17.292;2023-04-01T05:58:49;29.60;;;17.20;;
77822;SDS011;67013;49.730;17.292;2023-04-01T06:01:21;15.70;;;8.50;;
77822;SDS011;67013;49.730;17.292;2023-04-01T06:03:51;17.90;;;11.80;;
77822;SDS011;67013;49.730;17.292;2023-04-01T06:06:23;18.50;;;10.40;;
77822;SDS011;67013;49.730;17.292;2023-04-01T06:08:53;13.40;;;7.10;;
77822;SDS011;67013;49.730;17.292;2023-04-01T06:11:28;17.90;;;6.80;;
77822;SDS011;67013;49.730;17.292;2023-04-01T06:14:11;14.50;;;6.20;;
77822;SDS011;67013;49.730;17.292;2023-04-01T06:16:57;12.60;;;5.70;;
77822;SDS011;67013;49.730;17.292;2023-04-01T06:19:38;10.20;;;5.50;;
77822;SDS011;67013;49.730;17.292;2023-04-01T06:22:19;10.90;;;4.90;;
77822;SDS011;67013;49.730;17.292;2023-04-01T06:25:21;12.30;;;6.80;;
77822;SDS011;67013;49.730;17.292;2023-04-01T06:27:59;13.90;;;7.10;;
77822;SDS011;67013;49.730;17.292;2023-04-01T06:30:49;11.80;;;7.10;;
77822;SDS011;67013;49.730;17.292;2023-04-01T06:39:24;11.40;;;5.70;;
77822;SDS011;67013;49.730;17.292;2023-04-01T06:42:12;10.60;;;5.60;;
77822;SDS011;67013;49.730;17.292;2023-04-01T06:44:54;13.90;;;6.80;;
77822;SDS011;67013;49.730;17.292;2023-04-01T06:47:35;9.80;;;5.20;;
77822;SDS011;67013;49.730;17.292;2023-04-01T06:50:16;8.30;;;3.80;;
77822;SDS011;67013;49.730;17.292;2023-04-01T06:52:56;7.20;;;3.40;;
77822;SDS011;67013;49.730;17.292;2023-04-01T06:55:34;9.80;;;3.60;;
77822;SDS011;67013;49.730;17.292;2023-04-01T06:58:11;6.60;;;3.10;;
77822;SDS011;67013;49.730;17.292;2023-04-01T07:00:48;6.90;;;3.20;;
77822;SDS011;67013;49.730;17.292;2023-04-01T07:03:21;8.80;;;3.00;;
77822;SDS011;67013;49.730;17.292;2023-04-01T07:06:00;8.10;;;3.10;;
77822;SDS011;67013;49.730;17.292;2023-04-01T07:08:33;7.30;;;3.40;;
77822;SDS011;67013;49.730;17.292;2023-04-01T07:11:05;10.50;;;3.50;;
77822;SDS011;67013;49.730;17.292;2023-04-01T07:16:11;6.80;;;3.40;;
77822;SDS011;67013;49.730;17.292;2023-04-01T07:18:45;8.60;;;4.10;;
77822;SDS011;67013;49.730;17.292;2023-04-01T07:21:25;9.10;;;4.40;;
77822;SDS011;67013;49.730;17.292;2023-04-01T07:23:59;10.20;;;4.20;;
77822;SDS011;67013;49.730;17.292;2023-04-01T07:26:33;8.00;;;3.80;;
77822;SDS011;67013;49.730;17.292;2023-04-01T07:29:05;9.10;;;3.80;;
77822;SDS011;67013;49.730;17.292;2023-04-01T07:31:42;8.10;;;3.40;;
77822;SDS011;67013;49.730;17.292;2023-04-01T07:34:25;8.10;;;3.70;;
77822;SDS011;67013;49.730;17.292;2023-04-01T07:36:57;6.70;;;3.00;;
77822;SDS011;67013;49.730;17.292;2023-04-01T07:39:36;8.20;;;3.10;;
77822;SDS011;67013;49.730;17.292;2023-04-01T07:42:15;10.00;;;2.50;;
77822;SDS011;67013;49.730;17.292;2023-04-01T07:44:54;6.70;;;2.00;;
77822;SDS011;67013;49.730;17.292;2023-04-01T07:47:30;6.60;;;2.40;;
77822;SDS011;67013;49.730;17.292;2023-04-01T07:50:13;7.10;;;3.00;;
77822;SDS011;67013;49.730;17.292;2023-04-01T07:52:52;5.90;;;3.00;;
77822;SDS011;67013;49.730;17.292;2023-04-01T07:55:36;6.80;;;3.20;;
77822;SDS011;67013;49.730;17.292;2023-04-01T07:58:14;7.80;;;3.00;;
77822;SDS011;67013;49.730;17.292;2023-04-01T08:00:51;5.70;;;3.00;;
77822;SDS011;67013;49.730;17.292;2023-04-01T08:03:33;7.30;;;3.20;;
77822;SDS011;67013;49.730;17.292;2023-04-01T08:06:18;7.60;;;3.10;;
77822;SDS011;67013;49.730;17.292;2023-04-01T08:08:56;7.50;;;3.00;;
77822;SDS011;67013;49.730;17.292;2023-04-01T08:11:35;8.70;;;3.30;;
77822;SDS011;67013;49.730;17.292;2023-04-01T08:14:17;7.30;;;2.80;;
77822;SDS011;67013;49.730;17.292;2023-04-01T08:16:56;5.30;;;2.30;;
77822;SDS011;67013;49.730;17.292;2023-04-01T08:22:19;5.10;;;2.60;;
77822;SDS011;67013;49.730;17.292;2023-04-01T08:24:53;7.50;;;3.00;;
77822;SDS011;67013;49.730;17.292;2023-04-01T08:27:31;7.00;;;2.70;;
77822;SDS011;67013;49.730;17.292;2023-04-01T08:30:15;8.50;;;3.50;;
77822;SDS011;67013;49.730;17.292;2023-04-01T08:32:47;10.40;;;3.20;;
77822;SDS011;67013;49.730;17.292;2023-04-01T08:35:25;6.60;;;3.00;;
77822;SDS011;67013;49.730;17.292;2023-04-01T08:37:59;8.90;;;3.40;;
77822;SDS011;67013;49.730;17.292;2023-04-01T08:40:46;10.70;;;3.00;;
77822;SDS011;67013;49.730;17.292;2023-04-01T08:43:25;7.50;;;2.90;;
77822;SDS011;67013;49.730;17.292;2023-04-01T08:46:30;5.90;;;3.00;;
77822;SDS011;67013;49.730;17.292;2023-04-01T08:49:21;6.20;;;2.90;;
77822;SDS011;67013;49.730;17.292;2023-04-01T08:52:13;8.60;;;4.10;;
77822;SDS011;67013;49.730;17.292;2023-04-01T08:54:59;13.00;;;5.20;;
77822;SDS011;67013;49.730;17.292;2023-04-01T08:57:49;11.90;;;4.20;;
77822;SDS011;67013;49.730;17.292;2023-04-01T09:00:31;9.40;;;3.80;;
77822;SDS011;67013;49.730;17.292;2023-04-01T09:03:21;8.40;;;3.60;;
77822;SDS011;67013;49.730;17.292;2023-04-01T09:06:17;9.30;;;3.60;;
77822;SDS011;67013;49.730;17.292;2023-04-01T09:09:02;8.00;;;3.50;;
77822;SDS011;67013;49.730;17.292;2023-04-01T09:15:01;11.00;;;3.90;;
77822;SDS011;67013;49.730;17.292;2023-04-01T09:20:52;9.30;;;3.00;;
77822;SDS011;67013;49.730;17.292;2023-04-01T09:26:48;8.90;;;3.00;;
77822;SDS011;67013;49.730;17.292;2023-04-01T09:35:36;13.90;;;5.50;;
77822;SDS011;67013;49.730;17.292;2023-04-01T09:38:20;12.10;;;4.20;;
77822;SDS011;67013;49.730;17.292;2023-04-01T09:40:56;8.20;;;3.80;;
77822;SDS011;67013;49.730;17.292;2023-04-01T09:43:32;8.40;;;3.30;;
77822;SDS011;67013;49.730;17.292;2023-04-01T09:46:26;10.20;;;3.30;;
77822;SDS011;67013;49.730;17.292;2023-04-01T09:49:20;7.80;;;2.80;;
77822;SDS011;67013;49.730;17.292;2023-04-01T09:52:18;8.30;;;3.70;;
77822;SDS011;67013;49.730;17.292;2023-04-01T09:55:03;6.80;;;4.00;;
77822;SDS011;67013;49.730;17.292;2023-04-01T10:01:05;7.30;;;4.60;;
77822;SDS011;67013;49.730;17.292;2023-04-01T10:04:09;10.80;;;4.50;;
77822;SDS011;67013;49.730;17.292;2023-04-01T10:07:12;8.90;;;4.80;;
77822;SDS011;67013;49.730;17.292;2023-04-01T10:13:25;13.40;;;6.10;;
77822;SDS011;67013;49.730;17.292;2023-04-01T10:16:24;16.80;;;7.80;;
77822;SDS011;67013;49.730;17.292;2023-04-01T10:19:14;16.10;;;6.80;;
77822;SDS011;67013;49.730;17.292;2023-04-01T10:22:13;19.60;;;8.30;;
77822;SDS011;67013;49.730;17.292;2023-04-01T10:25:03;14.00;;;7.60;;
77822;SDS011;67013;49.730;17.292;2023-04-01T10:27:50;9.80;;;5.40;;
77822;SDS011;67013;49.730;17.292;2023-04-01T10:36:57;9.00;;;5.10;;
77822;SDS011;67013;49.730;17.292;2023-04-01T10:39:37;7.80;;;3.80;;
77822;SDS011;67013;49.730;17.292;2023-04-01T10:42:27;8.60;;;4.20;;
77822;SDS011;67013;49.730;17.292;2023-04-01T10:48:28;6.70;;;3.70;;
77822;SDS011;67013;49.730;17.292;2023-04-01T10:51:36;7.90;;;3.70;;
77822;SDS011;67013;49.730;17.292;2023-04-01T10:54:37;7.30;;;3.40;;
77822;SDS011;67013;49.730;17.292;2023-04-01T11:00:26;7.00;;;3.20;;
77822;SDS011;67013;49.730;17.292;2023-04-01T11:03:13;8.00;;;2.90;;
77822;SDS011;67013;49.730;17.292;2023-04-01T11:15:37;7.00;;;3.80;;
77822;SDS011;67013;49.730;17.292;2023-04-01T11:18:49;9.80;;;4.60;;
77822;SDS011;67013;49.730;17.292;2023-04-01T11:21:47;10.10;;;3.40;;
77822;SDS011;67013;49.730;17.292;2023-04-01T11:27:28;8.60;;;4.50;;
77822;SDS011;67013;49.730;17.292;2023-04-01T11:30:16;9.30;;;3.40;;
77822;SDS011;67013;49.730;17.292;2023-04-01T11:32:56;12.80;;;6.20;;
77822;SDS011;67013;49.730;17.292;2023-04-01T11:35:36;17.90;;;7.10;;
77822;SDS011;67013;49.730;17.292;2023-04-01T11:38:17;9.50;;;4.80;;
77822;SDS011;67013;49.730;17.292;2023-04-01T11:40:59;14.40;;;6.40;;
77822;SDS011;67013;49.730;17.292;2023-04-01T11:43:43;22.00;;;10.60;;
77822;SDS011;67013;49.730;17.292;2023-04-01T11:46:25;15.70;;;8.40;;
77822;SDS011;67013;49.730;17.292;2023-04-01T11:49:05;14.40;;;7.60;;
77822;SDS011;67013;49.730;17.292;2023-04-01T11:51:59;9.90;;;5.40;;
77822;SDS011;67013;49.730;17.292;2023-04-01T11:54:45;10.30;;;6.10;;
77822;SDS011;67013;49.730;17.292;2023-04-01T11:57:38;10.60;;;5.20;;
77822;SDS011;67013;49.730;17.292;2023-04-01T12:00:37;7.60;;;4.30;;
77822;SDS011;67013;49.730;17.292;2023-04-01T12:06:18;5.10;;;3.10;;
77822;SDS011;67013;49.730;17.292;2023-04-01T12:08:57;8.30;;;3.90;;
77822;SDS011;67013;49.730;17.292;2023-04-01T12:11:34;8.10;;;3.20;;
77822;SDS011;67013;49.730;17.292;2023-04-01T12:14:16;9.50;;;3.70;;
77822;SDS011;67013;49.730;17.292;2023-04-01T12:17:00;13.20;;;5.30;;
77822;SDS011;67013;49.730;17.292;2023-04-01T12:19:39;9.90;;;4.40;;
77822;SDS011;67013;49.730;17.292;2023-04-01T12:22:29;6.90;;;4.50;;
77822;SDS011;67013;49.730;17.292;2023-04-01T12:25:16;8.40;;;4.20;;
77822;SDS011;67013;49.730;17.292;2023-04-01T12:28:01;7.80;;;3.70;;
77822;SDS011;67013;49.730;17.292;2023-04-01T12:30:47;9.40;;;4.80;;
77822;SDS011;67013;49.730;17.292;2023-04-01T12:33:39;11.40;;;4.70;;
77822;SDS011;67013;49.730;17.292;2023-04-01T12:39:27;17.00;;;7.20;;
77822;SDS011;67013;49.730;17.292;2023-04-01T12:42:10;13.20;;;7.70;;
77822;SDS011;67013;49.730;17.292;2023-04-01T12:44:52;26.20;;;14.60;;
77822;SDS011;67013;49.730;17.292;2023-04-01T12:47:42;13.60;;;7.30;;
77822;SDS011;67013;49.730;17.292;2023-04-01T12:50:37;58.40;;;40.10;;
77822;SDS011;67013;49.730;17.292;2023-04-01T12:53:26;7.10;;;4.00;;
77822;SDS011;67013;49.730;17.292;2023-04-01T12:56:09;8.70;;;5.90;;
77822;SDS011;67013;49.730;17.292;2023-04-01T12:58:57;7.50;;;6.60;;
77822;SDS011;67013;49.730;17.292;2023-04-01T13:02:02;8.20;;;5.90;;
77822;SDS011;67013;49.730;17.292;2023-04-01T13:04:57;6.30;;;4.40;;
77822;SDS011;67013;49.730;17.292;2023-04-01T13:10:41;5.20;;;3.30;;
77822;SDS011;67013;49.730;17.292;2023-04-01T13:13:36;4.80;;;2.80;;
77822;SDS011;67013;49.730;17.292;2023-04-01T13:16:19;5.70;;;2.60;;
77822;SDS011;67013;49.730;17.292;2023-04-01T13:18:55;5.20;;;2.60;;
77822;SDS011;67013;49.730;17.292;2023-04-01T13:21:33;5.60;;;2.70;;
77822;SDS011;67013;49.730;17.292;2023-04-01T13:24:14;5.50;;;2.90;;
77822;SDS011;67013;49.730;17.292;2023-04-01T13:27:00;8.50;;;3.10;;
77822;SDS011;67013;49.730;17.292;2023-04-01T13:29:38;8.10;;;3.80;;
77822;SDS011;67013;49.730;17.292;2023-04-01T13:38:08;11.20;;;4.90;;
77822;SDS011;67013;49.730;17.292;2023-04-01T13:41:00;7.90;;;4.10;;
77822;SDS011;67013;49.730;17.292;2023-04-01T13:43:36;8.80;;;3.70;;
77822;SDS011;67013;49.730;17.292;2023-04-01T13:46:16;9.50;;;5.40;;
77822;SDS011;67013;49.730;17.292;2023-04-01T13:52:17;7.50;;;3.40;;
77822;SDS011;67013;49.730;17.292;2023-04-01T13:55:05;5.80;;;3.30;;
77822;SDS011;67013;49.730;17.292;2023-04-01T14:01:10;10.80;;;5.00;;
77822;SDS011;67013;49.730;17.292;2023-04-01T14:04:02;7.50;;;3.60;;
77822;SDS011;67013;49.730;17.292;2023-04-01T14:06:53;6.90;;;3.50;;
77822;SDS011;67013;49.730;17.292;2023-04-01T14:09:36;6.60;;;2.80;;
77822;SDS011;67013;49.730;17.292;2023-04-01T14:12:34;7.90;;;3.00;;
77822;SDS011;67013;49.730;17.292;2023-04-01T14:23:15;9.10;;;3.60;;
77822;SDS011;67013;49.730;17.292;2023-04-01T14:26:15;6.30;;;3.20;;
77822;SDS011;67013;49.730;17.292;2023-04-01T14:29:05;9.10;;;3.60;;
77822;SDS011;67013;49.730;17.292;2023-04-01T14:31:52;8.10;;;5.10;;
77822;SDS011;67013;49.730;17.292;2023-04-01T14:34:37;7.10;;;2.60;;
77822;SDS011;67013;49.730;17.292;2023-04-01T14:37:25;9.30;;;3.80;;
77822;SDS011;67013;49.730;17.292;2023-04-01T14:40:27;9.60;;;4.50;;
77822;SDS011;67013;49.730;17.292;2023-04-01T14:43:14;11.70;;;5.10;;
77822;SDS011;67013;49.730;17.292;2023-04-01T14:46:01;8.50;;;4.20;;
77822;SDS011;67013;49.730;17.292;2023-04-01T14:48:50;7.70;;;3.80;;
77822;SDS011;67013;49.730;17.292;2023-04-01T14:51:28;11.10;;;5.30;;
77822;SDS011;67013;49.730;17.292;2023-04-01T14:54:02;11.00;;;4.50;;
77822;SDS011;67013;49.730;17.292;2023-04-01T14:56:39;9.30;;;4.90;;
77822;SDS011;67013;49.730;17.292;2023-04-01T14:59:13;11.00;;;5.50;;
77822;SDS011;67013;49.730;17.292;2023-04-01T15:01:55;9.40;;;4.50;;
77822;SDS011;67013;49.730;17.292;2023-04-01T15:04:37;15.10;;;8.00;;
77822;SDS011;67013;49.730;17.292;2023-04-01T15:07:21;11.70;;;7.00;;
77822;SDS011;67013;49.730;17.292;2023-04-01T15:10:08;10.60;;;6.10;;
77822;SDS011;67013;49.730;17.292;2023-04-01T15:12:50;20.30;;;10.80;;
77822;SDS011;67013;49.730;17.292;2023-04-01T15:15:31;14.00;;;7.50;;
77822;SDS011;67013;49.730;17.292;2023-04-01T15:18:13;13.40;;;6.70;;
77822;SDS011;67013;49.730;17.292;2023-04-01T15:23:57;12.40;;;7.10;;
77822;SDS011;67013;49.730;17.292;2023-04-01T15:26:49;9.80;;;5.20;;
77822;SDS011;67013;49.730;17.292;2023-04-01T15:29:41;8.60;;;3.70;;
77822;SDS011;67013;49.730;17.292;2023-04-01T15:32:22;6.60;;;3.30;;
77822;SDS011;67013;49.730;17.292;2023-04-01T15:35:08;7.60;;;3.90;;
77822;SDS011;67013;49.730;17.292;2023-04-01T15:37:53;6.20;;;3.80;;
77822;SDS011;67013;49.730;17.292;2023-04-01T15:40:28;9.40;;;4.20;;
77822;SDS011;67013;49.730;17.292;2023-04-01T15:43:08;33.40;;;15.40;;
77822;SDS011;67013;49.730;17.292;2023-04-01T15:45:51;47.70;;;18.20;;
77822;SDS011;67013;49.730;17.292;2023-04-01T15:48:33;18.60;;;9.80;;
77822;SDS011;67013;49.730;17.292;2023-04-01T15:51:23;23.10;;;9.00;;
77822;SDS011;67013;49.730;17.292;2023-04-01T15:57:09;16.70;;;7.50;;
77822;SDS011;67013;49.730;17.292;2023-04-01T15:59:54;23.10;;;9.60;;
77822;SDS011;67013;49.730;17.292;2023-04-01T16:02:39;14.30;;;7.10;;
77822;SDS011;67013;49.730;17.292;2023-04-01T16:05:22;9.90;;;6.30;;
77822;SDS011;67013;49.730;17.292;2023-04-01T16:08:11;18.90;;;8.20;;
77822;SDS011;67013;49.730;17.292;2023-04-01T16:11:01;11.70;;;5.20;;
77822;SDS011;67013;49.730;17.292;2023-04-01T16:13:45;9.30;;;4.60;;
77822;SDS011;67013;49.730;17.292;2023-04-01T16:16:25;12.90;;;5.60;;
77822;SDS011;67013;49.730;17.292;2023-04-01T16:19:10;9.10;;;4.10;;
77822;SDS011;67013;49.730;17.292;2023-04-01T16:21:51;11.10;;;4.80;;
77822;SDS011;67013;49.730;17.292;2023-04-01T16:24:30;8.30;;;4.60;;
77822;SDS011;67013;49.730;17.292;2023-04-01T16:27:04;22.80;;;6.40;;
77822;SDS011;67013;49.730;17.292;2023-04-01T16:29:41;146.80;;;26.70;;
77822;SDS011;67013;49.730;17.292;2023-04-01T16:32:19;62.60;;;14.20;;
77822;SDS011;67013;49.730;17.292;2023-04-01T16:34:58;46.20;;;13.10;;
77822;SDS011;67013;49.730;17.292;2023-04-01T16:37:45;59.00;;;13.50;;
77822;SDS011;67013;49.730;17.292;2023-04-01T16:40:22;113.10;;;24.30;;
77822;SDS011;67013;49.730;17.292;2023-04-01T16:43:07;112.50;;;25.60;;
77822;SDS011;67013;49.730;17.292;2023-04-01T16:45:45;55.00;;;13.80;;
77822;SDS011;67013;49.730;17.292;2023-04-01T16:48:21;127.20;;;24.80;;
77822;SDS011;67013;49.730;17.292;2023-04-01T16:50:58;31.40;;;8.60;;
77822;SDS011;67013;49.730;17.292;2023-04-01T16:53:34;28.20;;;8.10;;
77822;SDS011;67013;49.730;17.292;2023-04-01T16:56:12;43.80;;;11.00;;
77822;SDS011;67013;49.730;17.292;2023-04-01T16:58:56;23.70;;;6.80;;
77822;SDS011;67013;49.730;17.292;2023-04-01T17:01:36;11.90;;;5.40;;
77822;SDS011;67013;49.730;17.292;2023-04-01T17:04:15;10.50;;;5.00;;
77822;SDS011;67013;49.730;17.292;2023-04-01T17:06:52;13.50;;;5.90;;
77822;SDS011;67013;49.730;17.292;2023-04-01T17:09:35;14.20;;;6.80;;
77822;SDS011;67013;49.730;17.292;2023-04-01T17:12:19;14.00;;;9.40;;